Time;durP1;ratioP1;P1;durP2;ratioP2;P2;SDS_P1;SDS_P2;PMS_P1;PMS_P2;Temp;Humidity;BMP_temperature;BMP_pressure;BME280_temperature;BME280_humidity;BME280_pressure;Samples;Min_cycle;Max_cycle;Signal;HPM_P1;HPM_P2
2024/01/15 00:01:31;;;;;;;5.90;1.40;;;-0.10;99.90;;;;;;5113816;28;20424;-71
2024/01/15 00:04:00;;;;;;;4.40;1.20;;;0.00;99.90;;;;;;5114723;27;20447;-71
2024/01/15 00:06:28;;;;;;;4.40;1.40;;;0.00;99.90;;;;;;5111660;27;20496;-71
2024/01/15 00:08:55;;;;;;;3.80;1.30;;;0.20;99.90;;;;;;5094603;28;20430;-71
2024/01/15 00:11:22;;;;;;;4.63;1.20;;;0.40;99.90;;;;;;5103455;28;20424;-71
2024/01/15 00:13:49;;;;;;;4.85;1.27;;;0.50;1.00;;;;;;5114139;28;20826;-71
2024/01/15 00:16:16;;;;;;;3.85;1.00;;;0.40;1.00;;;;;;5111415;28;20899;-73
2024/01/15 00:18:43;;;;;;;3.77;1.30;;;0.30;1.00;;;;;;5107764;28;20506;-72
2024/01/15 00:21:12;;;;;;;3.53;1.00;;;0.20;1.00;;;;;;5114202;28;20805;-72
2024/01/15 00:23:44;;;;;;;4.82;1.63;;;0.20;99.90;;;;;;5112567;28;20443;-71
2024/01/15 00:26:11;;;;;;;4.37;1.70;;;0.30;99.90;;;;;;5094206;28;20430;-72
2024/01/15 00:28:38;;;;;;;5.80;1.40;;;0.20;1.00;;;;;;5093209;28;20426;-72
2024/01/15 00:31:06;;;;;;;5.35;1.30;;;0.20;99.90;;;;;;5093787;28;20417;-71
2024/01/15 00:33:33;;;;;;;4.13;1.50;;;0.20;99.90;;;;;;5101829;28;20436;-73
2024/01/15 00:36:00;;;;;;;5.88;1.30;;;0.10;99.90;;;;;;5122277;28;20432;-73
2024/01/15 00:38:28;;;;;;;6.45;1.58;;;-0.10;99.90;;;;;;5112872;28;20901;-72
2024/01/15 00:40:56;;;;;;;6.40;1.30;;;-0.20;1.00;;;;;;5117345;28;20766;-72
2024/01/15 00:43:23;;;;;;;4.43;1.60;;;-0.40;1.00;;;;;;5100388;28;20820;-72
2024/01/15 00:45:50;;;;;;;5.43;1.20;;;-0.30;1.00;;;;;;5110032;28;20883;-72
2024/01/15 00:48:17;;;;;;;4.70;1.23;;;-0.40;99.90;;;;;;5111468;28;20466;-73
2024/01/15 00:50:44;;;;;;;7.25;1.58;;;-0.40;1.00;;;;;;5114378;28;20413;-72
2024/01/15 00:53:11;;;;;;;4.57;1.30;;;-0.40;1.00;;;;;;5114230;28;20416;-72
2024/01/15 00:55:40;;;;;;;3.92;1.58;;;-0.40;99.90;;;;;;5108792;28;20425;-73
2024/01/15 00:58:07;;;;;;;4.15;1.40;;;-0.40;1.00;;;;;;5109819;28;20443;-73
2024/01/15 01:00:34;;;;;;;3.53;0.97;;;-0.40;48.10;;;;;;5115272;28;20432;-73
2024/01/15 01:03:01;;;;;;;4.32;1.27;;;-0.40;1.00;;;;;;5095502;28;20406;-70
2024/01/15 01:05:28;;;;;;;5.20;1.10;;;-0.30;1.00;;;;;;5105446;28;20496;-71
2024/01/15 01:07:55;;;;;;;4.75;1.48;;;-0.20;1.00;;;;;;5117255;28;20412;-71
2024/01/15 01:10:22;;;;;;;6.38;1.20;;;0.10;1.00;;;;;;5117982;27;20427;-72
2024/01/15 01:12:50;;;;;;;4.15;1.38;;;0.00;1.00;;;;;;5110439;28;20425;-71
2024/01/15 01:15:17;;;;;;;5.05;1.45;;;-0.10;99.90;;;;;;5116768;28;20404;-72
2024/01/15 01:17:45;;;;;;;4.43;1.20;;;-0.20;1.00;;;;;;5108471;28;20421;-72
2024/01/15 01:20:12;;;;;;;4.10;1.08;;;-0.30;1.00;;;;;;5097122;28;20425;-72
2024/01/15 01:22:39;;;;;;;2.97;1.40;;;-0.30;99.90;;;;;;5102584;28;20437;-71
2024/01/15 01:25:07;;;;;;;4.85;1.10;;;-0.20;99.90;;;;;;5117219;28;20832;-72
2024/01/15 01:27:34;;;;;;;6.25;1.20;;;-0.30;99.90;;;;;;5117775;27;20667;-72
2024/01/15 01:30:03;;;;;;;5.13;1.30;;;-0.20;99.90;;;;;;5116502;28;20420;-71
2024/01/15 01:32:30;;;;;;;6.22;1.35;;;-0.20;99.90;;;;;;5116433;28;20420;-71
2024/01/15 01:34:59;;;;;;;4.00;1.20;;;-0.20;1.00;;;;;;5116531;28;20416;-72
2024/01/15 01:37:26;;;;;;;4.35;1.30;;;-0.20;1.00;;;;;;5115590;28;20412;-71
2024/01/15 01:39:53;;;;;;;5.32;1.20;;;-0.30;1.00;;;;;;5115039;28;20484;-71
2024/01/15 01:42:20;;;;;;;5.30;1.23;;;-0.30;1.00;;;;;;5100014;28;20425;-72
2024/01/15 01:44:47;;;;;;;2.70;0.98;;;-0.30;99.90;;;;;;5106951;27;20886;-72
2024/01/15 01:47:16;;;;;;;4.47;1.10;;;-0.20;99.90;;;;;;5116938;28;20443;-71
2024/01/15 01:49:43;;;;;;;3.00;1.00;;;0.00;1.00;;;;;;5116011;28;20436;-72
2024/01/15 01:52:11;;;;;;;3.17;1.20;;;0.00;99.90;;;;;;5117328;28;20416;-72
2024/01/15 01:54:40;;;;;;;4.40;1.10;;;0.00;99.90;;;;;;5116628;28;20420;-72
2024/01/15 01:57:08;;;;;;;5.38;1.20;;;0.00;99.90;;;;;;5114707;28;20432;-72
2024/01/15 01:59:36;;;;;;;3.90;1.13;;;-0.10;99.90;;;;;;5116731;28;20535;-72
2024/01/15 02:02:04;;;;;;;5.05;1.30;;;-0.10;1.00;;;;;;5116674;28;20760;-72
2024/01/15 02:04:33;;;;;;;5.97;1.10;;;-0.10;1.00;;;;;;5116290;28;20597;-71
2024/01/15 02:07:00;;;;;;;2.93;1.00;;;0.00;1.00;;;;;;5115740;28;20879;-72
2024/01/15 02:09:27;;;;;;;6.20;1.10;;;0.00;1.00;;;;;;5110590;28;20424;-72
2024/01/15 02:11:54;;;;;;;2.92;1.00;;;0.00;1.00;;;;;;5105766;28;20798;-72
2024/01/15 02:14:22;;;;;;;3.42;1.20;;;0.00;1.00;;;;;;5113813;28;20822;-72
2024/01/15 02:16:49;;;;;;;4.30;1.60;;;0.10;99.90;;;;;;5115255;28;20501;-71
2024/01/15 02:19:17;;;;;;;5.43;1.15;;;0.10;1.00;;;;;;5114835;28;20469;-72
2024/01/15 02:21:46;;;;;;;3.65;1.00;;;0.10;99.90;;;;;;5116538;28;20582;-73
2024/01/15 02:24:14;;;;;;;4.45;1.10;;;0.10;1.00;;;;;;5114955;28;20428;-71
2024/01/15 02:26:41;;;;;;;4.53;1.38;;;0.00;27.20;;;;;;5116933;28;20476;-71
2024/01/15 02:29:09;;;;;;;4.60;1.10;;;-0.10;1.00;;;;;;5116948;28;20436;-73
2024/01/15 02:31:36;;;;;;;4.82;1.00;;;0.00;26.00;;;;;;5114047;28;20535;-71
2024/01/15 02:34:03;;;;;;;2.50;0.98;;;0.00;1.00;;;;;;5115398;28;20854;-71
2024/01/15 02:36:30;;;;;;;6.10;1.40;;;0.10;99.90;;;;;;5115838;28;20838;-72
2024/01/15 02:38:57;;;;;;;5.07;1.10;;;0.10;99.90;;;;;;5096737;28;20605;-71
2024/01/15 02:41:26;;;;;;;4.40;1.30;;;0.00;99.90;;;;;;5122646;27;20432;-71
2024/01/15 02:43:53;;;;;;;2.47;1.10;;;0.00;99.90;;;;;;5114088;28;20461;-71
2024/01/15 02:46:20;;;;;;;5.05;1.25;;;-0.10;1.00;;;;;;5115090;28;20504;-71
2024/01/15 02:48:47;;;;;;;3.10;1.10;;;-0.10;40.70;;;;;;5114764;28;20436;-71
2024/01/15 02:51:14;;;;;;;4.27;1.20;;;-0.10;1.00;;;;;;5114048;28;20439;-71
2024/01/15 02:53:41;;;;;;;3.45;0.98;;;-0.10;56.00;;;;;;5101928;28;20780;-71
2024/01/15 02:56:08;;;;;;;4.93;1.20;;;-0.30;1.00;;;;;;5114693;28;20447;-71
2024/01/15 02:58:36;;;;;;;5.50;1.50;;;-0.30;99.90;;;;;;5114964;28;20501;-71
2024/01/15 03:01:04;;;;;;;4.40;1.02;;;-0.40;99.90;;;;;;5112842;28;20841;-71
2024/01/15 03:03:33;;;;;;;3.58;1.02;;;-0.30;99.90;;;;;;5114066;28;20436;-71
2024/01/15 03:05:59;;;;;;;3.08;1.00;;;-0.40;99.90;;;;;;5114386;28;20427;-71
2024/01/15 03:08:26;;;;;;;3.30;1.02;;;-0.50;99.90;;;;;;5112796;28;20436;-71
2024/01/15 03:10:53;;;;;;;2.13;0.98;;;-0.50;99.90;;;;;;5112294;28;20440;-71
2024/01/15 03:13:20;;;;;;;4.60;1.30;;;-0.50;1.00;;;;;;5096604;28;20441;-71
2024/01/15 03:15:49;;;;;;;3.25;1.15;;;-0.50;1.00;;;;;;5102024;28;20436;-71
2024/01/15 03:18:16;;;;;;;6.40;1.30;;;-0.40;1.00;;;;;;5112622;28;20439;-71
2024/01/15 03:20:43;;;;;;;4.50;1.10;;;-0.40;1.00;;;;;;5111851;28;20425;-71
2024/01/15 03:23:10;;;;;;;3.92;1.00;;;-0.30;99.90;;;;;;5114953;28;20720;-71
2024/01/15 03:25:37;;;;;;;5.63;1.20;;;-0.30;99.90;;;;;;5115022;28;20432;-71
2024/01/15 03:28:05;;;;;;;4.05;1.17;;;-0.30;99.90;;;;;;5106640;28;20439;-71
2024/01/15 03:30:32;;;;;;;4.20;1.10;;;-0.40;99.90;;;;;;5114648;28;20493;-71
2024/01/15 03:33:00;;;;;;;4.43;1.17;;;-0.40;1.00;;;;;;5110798;28;20436;-71
2024/01/15 03:35:29;;;;;;;5.82;1.15;;;-0.40;99.90;;;;;;5113846;28;20771;-71
2024/01/15 03:37:55;;;;;;;3.90;1.10;;;-0.40;1.00;;;;;;5097026;28;20449;-71
2024/01/15 03:40:22;;;;;;;3.40;1.10;;;-0.40;1.00;;;;;;5111977;28;20460;-71
2024/01/15 03:42:49;;;;;;;4.50;1.30;;;-0.30;1.00;;;;;;5114480;28;20501;-70
2024/01/15 03:45:16;;;;;;;4.65;1.00;;;-0.10;1.00;;;;;;5114817;28;20813;-71
2024/01/15 03:47:43;;;;;;;2.90;1.20;;;0.00;27.30;;;;;;5112738;28;20444;-72
2024/01/15 03:50:12;;;;;;;3.63;1.05;;;0.10;99.90;;;;;;5114610;28;20432;-72
2024/01/15 03:52:39;;;;;;;4.53;1.00;;;0.20;56.00;;;;;;5102869;28;20512;-72
2024/01/15 03:55:06;;;;;;;3.42;0.85;;;0.10;1.00;;;;;;5094403;28;20418;-72
2024/01/15 03:57:33;;;;;;;2.97;1.00;;;0.20;1.00;;;;;;5112536;28;20412;-72
2024/01/15 04:00:00;;;;;;;4.85;1.20;;;0.30;99.90;;;;;;5114911;28;20419;-72
2024/01/15 04:02:27;;;;;;;2.17;1.10;;;0.50;1.00;;;;;;5110481;28;20728;-72
2024/01/15 04:04:54;;;;;;;4.13;1.27;;;0.60;99.90;;;;;;5097761;28;20439;-71
2024/01/15 04:07:25;;;;;;;3.65;1.00;;;0.60;1.00;;;;;;5113805;28;20416;-72
2024/01/15 04:09:52;;;;;;;3.75;1.40;;;0.70;99.90;;;;;;5104587;28;20475;-72
2024/01/15 04:12:19;;;;;;;3.90;1.10;;;0.70;1.00;;;;;;5109957;28;20424;-72
2024/01/15 04:14:46;;;;;;;3.50;1.08;;;0.80;99.90;;;;;;5105028;28;20428;-72
2024/01/15 04:17:13;;;;;;;3.33;0.90;;;0.80;99.90;;;;;;5111658;28;20443;-72
2024/01/15 04:19:43;;;;;;;3.17;1.10;;;0.90;1.00;;;;;;5112815;28;20431;-71
2024/01/15 04:22:10;;;;;;;3.28;0.90;;;0.90;1.00;;;;;;5112528;28;20435;-72
2024/01/15 04:24:39;;;;;;;4.53;1.00;;;0.90;1.00;;;;;;5112675;28;20432;-72
2024/01/15 04:27:06;;;;;;;3.73;0.90;;;0.90;1.00;;;;;;5111199;28;20439;-72
2024/01/15 04:29:33;;;;;;;3.40;0.93;;;0.80;98.50;;;;;;5111872;28;20451;-72
2024/01/15 04:32:00;;;;;;;1.85;0.90;;;0.80;1.00;;;;;;5117810;28;20493;-72
2024/01/15 04:34:27;;;;;;;3.33;0.90;;;0.70;99.90;;;;;;5116135;28;20703;-71
2024/01/15 04:36:54;;;;;;;2.30;1.10;;;1.00;1.00;;;;;;5116681;28;20509;-72
2024/01/15 04:39:22;;;;;;;3.13;1.00;;;1.00;1.00;;;;;;5117166;28;20462;-72
2024/01/15 04:41:50;;;;;;;1.90;0.90;;;1.00;1.00;;;;;;5107940;28;20432;-73
2024/01/15 04:44:17;;;;;;;2.30;0.90;;;1.00;40.10;;;;;;5095857;28;20830;-72
2024/01/15 04:46:44;;;;;;;2.15;0.80;;;0.90;99.90;;;;;;5098800;28;20505;-73
2024/01/15 04:49:12;;;;;;;4.50;1.10;;;0.80;99.90;;;;;;5103384;28;20538;-72
2024/01/15 04:51:40;;;;;;;4.30;1.20;;;0.90;1.00;;;;;;5112816;28;20755;-72
2024/01/15 04:54:07;;;;;;;4.20;0.90;;;0.90;99.90;;;;;;5105043;28;21076;-72
2024/01/15 04:56:34;;;;;;;3.97;1.00;;;0.80;99.90;;;;;;5096702;28;20429;-72
2024/01/15 04:59:02;;;;;;;2.42;0.90;;;0.80;99.90;;;;;;5097142;28;20535;-72
2024/01/15 05:01:32;;;;;;;3.65;0.80;;;0.80;99.90;;;;;;5098065;28;20516;-73
2024/01/15 05:03:59;;;;;;;2.63;1.00;;;0.90;1.00;;;;;;5097334;28;20765;-72
2024/01/15 05:06:26;;;;;;;3.92;1.00;;;0.80;99.90;;;;;;5097671;28;20441;-72
2024/01/15 05:08:53;;;;;;;3.80;1.10;;;0.80;1.00;;;;;;5109682;27;20423;-72
2024/01/15 05:11:21;;;;;;;2.90;0.90;;;0.70;1.00;;;;;;5117477;28;20539;-72
2024/01/15 05:13:48;;;;;;;4.32;1.00;;;0.70;1.00;;;;;;5116625;28;20737;-72
2024/01/15 05:16:16;;;;;;;2.97;1.08;;;0.70;1.00;;;;;;5117157;28;20431;-72
2024/01/15 05:18:45;;;;;;;3.70;1.00;;;0.70;99.90;;;;;;5115453;28;20439;-73
2024/01/15 05:21:12;;;;;;;4.28;1.20;;;0.80;1.00;;;;;;5116254;28;20650;-74
2024/01/15 05:23:39;;;;;;;2.50;1.10;;;0.90;99.90;;;;;;5108672;28;20455;-73
2024/01/15 05:26:08;;;;;;;3.42;1.10;;;0.80;99.90;;;;;;5110326;28;20493;-74
2024/01/15 05:28:35;;;;;;;4.60;1.00;;;0.80;99.90;;;;;;5114643;28;20493;-72
2024/01/15 05:31:04;;;;;;;3.50;1.02;;;0.90;99.90;;;;;;5109083;28;20466;-72
2024/01/15 05:33:32;;;;;;;3.20;0.80;;;1.00;99.90;;;;;;5104541;28;20864;-72
2024/01/15 05:35:59;;;;;;;2.95;1.00;;;1.00;1.00;;;;;;5114197;28;20436;-73
2024/01/15 05:38:26;;;;;;;4.55;1.20;;;1.00;1.00;;;;;;5102536;28;20440;-73
2024/01/15 05:40:53;;;;;;;2.38;0.90;;;0.90;1.00;;;;;;5113718;28;20440;-73
2024/01/15 05:43:19;;;;;;;3.55;0.93;;;0.90;99.90;;;;;;5099893;28;20806;-73
2024/01/15 05:45:47;;;;;;;2.70;1.00;;;0.90;1.00;;;;;;5112679;28;20558;-73
2024/01/15 05:48:15;;;;;;;3.50;0.90;;;0.80;1.00;;;;;;5114365;28;21507;-73
2024/01/15 05:50:44;;;;;;;2.70;1.00;;;1.00;1.00;;;;;;5115097;28;20722;-72
2024/01/15 05:53:11;;;;;;;4.50;1.00;;;0.90;1.00;;;;;;5111497;28;20443;-72
2024/01/15 05:55:38;;;;;;;3.88;1.20;;;0.90;1.00;;;;;;5116839;28;20416;-71
2024/01/15 05:58:05;;;;;;;4.63;1.20;;;0.90;99.90;;;;;;5113485;28;20523;-72
2024/01/15 06:00:33;;;;;;;2.63;1.00;;;0.80;99.90;;;;;;5115231;28;20837;-74
2024/01/15 06:03:00;;;;;;;7.00;1.40;;;0.90;99.90;;;;;;5114669;28;20436;-71
2024/01/15 06:05:27;;;;;;;4.50;1.20;;;0.80;1.00;;;;;;5094973;28;20469;-72
2024/01/15 06:07:55;;;;;;;4.30;1.10;;;0.90;1.00;;;;;;5113395;28;20455;-71
2024/01/15 06:10:22;;;;;;;3.15;1.10;;;0.90;1.00;;;;;;5099900;28;20724;-71
2024/01/15 06:12:49;;;;;;;2.90;1.00;;;0.90;1.00;;;;;;5098552;28;20441;-71
2024/01/15 06:15:16;;;;;;;3.28;1.00;;;0.90;1.00;;;;;;5107832;28;20428;-72
2024/01/15 06:17:44;;;;;;;4.82;1.10;;;0.90;1.00;;;;;;5114348;28;20432;-72
2024/01/15 06:20:12;;;;;;;3.13;1.00;;;1.00;1.00;;;;;;5113615;28;20440;-72
2024/01/15 06:22:40;;;;;;;4.50;1.10;;;1.10;99.90;;;;;;5113718;28;20444;-72
2024/01/15 06:25:10;;;;;;;4.07;1.33;;;1.00;99.90;;;;;;5113612;28;20467;-72
2024/01/15 06:27:37;;;;;;;4.57;1.15;;;1.10;99.90;;;;;;5109867;28;21096;-73
2024/01/15 06:30:05;;;;;;;3.63;1.10;;;1.00;99.90;;;;;;5110279;28;20449;-72
2024/01/15 06:32:32;;;;;;;4.43;1.02;;;1.00;99.90;;;;;;5103592;28;20744;-72
2024/01/15 06:34:59;;;;;;;3.13;1.00;;;1.00;1.00;;;;;;5108248;28;20432;-72
2024/01/15 06:37:26;;;;;;;3.60;1.00;;;1.10;1.00;;;;;;5108929;28;20486;-72
2024/01/15 06:39:53;;;;;;;3.05;1.02;;;1.10;99.90;;;;;;5112650;28;20424;-72
2024/01/15 06:42:22;;;;;;;3.38;1.00;;;1.00;99.90;;;;;;5111948;28;20436;-72
2024/01/15 06:44:49;;;;;;;2.95;1.00;;;1.00;1.00;;;;;;5092909;28;20430;-72
2024/01/15 06:47:17;;;;;;;3.80;0.90;;;1.00;99.90;;;;;;5109527;28;20444;-73
2024/01/15 06:49:44;;;;;;;3.22;1.00;;;0.90;1.00;;;;;;5097753;28;20747;-74
2024/01/15 06:52:12;;;;;;;3.15;1.30;;;0.90;1.00;;;;;;5110804;28;20439;-74
2024/01/15 06:54:39;;;;;;;3.97;1.10;;;0.90;1.00;;;;;;5112725;28;20542;-71
2024/01/15 06:57:07;;;;;;;2.75;1.00;;;0.90;1.00;;;;;;5112240;28;20473;-71
2024/01/15 06:59:36;;;;;;;2.90;1.27;;;0.90;99.90;;;;;;5114957;28;20425;-72
2024/01/15 07:02:03;;;;;;;4.60;1.00;;;1.00;1.00;;;;;;5114000;28;20527;-71
2024/01/15 07:04:30;;;;;;;2.33;0.80;;;1.00;99.90;;;;;;5113632;28;20735;-71
2024/01/15 07:06:57;;;;;;;2.92;0.90;;;1.00;1.00;;;;;;5115811;28;20491;-71
2024/01/15 07:09:24;;;;;;;2.70;1.00;;;1.00;1.00;;;;;;5114520;28;20427;-72
2024/01/15 07:11:51;;;;;;;3.63;0.90;;;1.00;97.00;;;;;;5115302;27;20529;-72
2024/01/15 07:14:18;;;;;;;1.58;0.90;;;1.10;94.20;;;;;;5106569;28;20998;-72
2024/01/15 07:16:53;;;;;;;4.57;0.98;;;1.20;1.00;;;;;;5101431;27;20385;-60
2024/01/15 07:19:20;;;;;;;2.10;0.80;;;1.30;1.00;;;;;;5086793;28;20422;-60
2024/01/15 07:21:47;;;;;;;1.85;0.98;;;1.30;99.90;;;;;;5087637;28;20479;-60
2024/01/15 07:24:14;;;;;;;3.72;1.10;;;1.20;99.90;;;;;;5084753;28;20925;-61
2024/01/15 07:26:41;;;;;;;2.70;1.20;;;1.20;1.00;;;;;;5080516;28;20439;-61
2024/01/15 07:29:08;;;;;;;6.22;1.10;;;1.20;1.00;;;;;;5087168;28;20446;-60
2024/01/15 07:31:35;;;;;;;1.63;0.90;;;1.10;99.90;;;;;;5085871;28;20439;-60
2024/01/15 07:34:03;;;;;;;2.70;1.00;;;1.20;99.90;;;;;;5088894;28;20492;-60
2024/01/15 07:36:31;;;;;;;2.92;0.90;;;1.30;1.00;;;;;;5087092;28;20431;-60
2024/01/15 07:38:58;;;;;;;4.78;1.00;;;1.30;99.90;;;;;;5087581;28;20451;-60
2024/01/15 07:41:25;;;;;;;2.92;1.20;;;1.20;99.90;;;;;;5088561;28;20439;-60
2024/01/15 07:43:52;;;;;;;2.17;0.90;;;1.20;99.90;;;;;;5086519;28;20435;-60
2024/01/15 07:46:19;;;;;;;5.13;1.10;;;1.20;99.90;;;;;;5090147;28;20443;-60
2024/01/15 07:48:46;;;;;;;3.13;1.02;;;1.20;99.90;;;;;;5088934;28;21008;-60
2024/01/15 07:51:15;;;;;;;5.20;1.00;;;1.20;99.90;;;;;;5088262;28;20442;-60
2024/01/15 07:53:41;;;;;;;1.90;0.90;;;1.20;99.90;;;;;;5088506;28;20867;-60
2024/01/15 07:56:09;;;;;;;2.90;1.10;;;1.30;99.90;;;;;;5088031;28;20431;-60
2024/01/15 07:58:35;;;;;;;2.72;1.00;;;1.30;37.40;;;;;;5086897;28;20435;-60
2024/01/15 08:01:03;;;;;;;3.10;0.90;;;1.50;20.40;;;;;;5084681;28;20434;-60
2024/01/15 08:03:29;;;;;;;2.92;1.00;;;1.50;1.00;;;;;;5085877;28;20435;-60
2024/01/15 08:05:59;;;;;;;3.80;0.90;;;1.60;1.00;;;;;;5085627;28;20495;-60
2024/01/15 08:08:27;;;;;;;2.83;1.08;;;1.60;1.00;;;;;;5086140;28;20434;-60
2024/01/15 08:10:54;;;;;;;5.00;0.90;;;1.60;1.00;;;;;;5087441;28;20442;-60
2024/01/15 08:13:21;;;;;;;2.38;0.98;;;1.60;1.00;;;;;;5087019;28;20887;-60
2024/01/15 08:15:50;;;;;;;2.07;0.80;;;1.60;1.00;;;;;;5086417;28;20431;-60
2024/01/15 08:18:17;;;;;;;1.80;0.90;;;1.60;1.00;;;;;;5087807;28;20561;-58
2024/01/15 08:20:44;;;;;;;3.00;0.90;;;1.60;1.00;;;;;;5087570;28;20427;-59
2024/01/15 08:23:11;;;;;;;2.38;0.90;;;1.60;1.00;;;;;;5084154;28;20453;-59
2024/01/15 08:25:39;;;;;;;3.10;0.80;;;1.60;1.00;;;;;;5083301;28;20445;-59
2024/01/15 08:28:07;;;;;;;2.40;0.90;;;1.60;1.00;;;;;;5070016;28;20443;-59
2024/01/15 08:30:35;;;;;;;2.90;0.80;;;1.60;1.00;;;;;;5072231;28;20922;-59
2024/01/15 08:33:02;;;;;;;2.55;0.80;;;1.50;1.00;;;;;;5070541;28;20439;-59
2024/01/15 08:35:29;;;;;;;2.70;0.80;;;1.60;1.00;;;;;;5074367;28;20848;-59
2024/01/15 08:37:58;;;;;;;2.10;0.80;;;1.60;1.00;;;;;;5073315;28;20498;-60
2024/01/15 08:40:25;;;;;;;3.83;0.90;;;1.60;1.00;;;;;;5074062;28;20471;-59
2024/01/15 08:42:53;;;;;;;2.08;0.82;;;1.70;1.00;;;;;;5071356;28;20439;-59
2024/01/15 08:45:21;;;;;;;2.75;0.80;;;1.80;1.00;;;;;;5071033;28;20435;-59
2024/01/15 08:47:48;;;;;;;2.20;0.80;;;2.00;1.00;;;;;;5072288;28;20522;-59
2024/01/15 08:50:15;;;;;;;2.28;0.85;;;1.90;99.90;;;;;;5072328;28;20499;-59
2024/01/15 08:52:42;;;;;;;1.80;0.80;;;1.80;99.90;;;;;;5071885;28;20499;-59
2024/01/15 08:55:09;;;;;;;1.80;0.70;;;1.80;1.00;;;;;;5073228;28;20866;-59
2024/01/15 08:57:36;;;;;;;1.30;0.60;;;2.00;99.90;;;;;;5073460;28;20852;-59
2024/01/15 09:00:08;;;;;;;4.25;0.80;;;2.00;99.90;;;;;;5073483;28;20477;-60
2024/01/15 09:02:35;;;;;;;2.00;0.80;;;2.10;99.90;;;;;;5070826;28;20474;-60
2024/01/15 09:05:04;;;;;;;2.43;0.67;;;2.10;99.90;;;;;;5073959;28;20474;-60
2024/01/15 09:07:31;;;;;;;1.90;0.70;;;2.10;99.90;;;;;;5078763;28;20427;-59
2024/01/15 09:09:59;;;;;;;1.20;0.60;;;2.20;99.90;;;;;;5071774;28;20954;-60
2024/01/15 09:12:26;;;;;;;1.40;0.70;;;2.10;99.90;;;;;;5074036;28;20463;-60
2024/01/15 09:14:53;;;;;;;2.10;0.80;;;2.00;99.90;;;;;;5072467;28;20443;-62
2024/01/15 09:17:23;;;;;;;3.70;0.70;;;1.90;99.90;;;;;;5067515;28;20462;-51
2024/01/15 09:19:50;;;;;;;2.70;0.60;;;1.90;99.90;;;;;;5072198;28;20433;-56
2024/01/15 09:22:18;;;;;;;1.95;0.60;;;1.90;99.90;;;;;;5071820;28;20447;-53
2024/01/15 09:24:45;;;;;;;1.40;0.70;;;2.00;1.00;;;;;;5070317;28;20530;-56
2024/01/15 09:27:12;;;;;;;2.05;0.70;;;2.10;99.90;;;;;;5071257;28;20440;-54
2024/01/15 09:29:41;;;;;;;1.10;0.60;;;2.10;99.90;;;;;;5072401;28;20420;-55
2024/01/15 09:32:09;;;;;;;1.60;0.70;;;2.20;99.90;;;;;;5072866;28;20430;-55
2024/01/15 09:34:37;;;;;;;1.40;0.70;;;2.20;99.90;;;;;;5068596;28;20443;-54
2024/01/15 09:37:04;;;;;;;1.60;0.70;;;2.30;99.90;;;;;;5072133;28;20500;-55
2024/01/15 09:39:32;;;;;;;1.40;0.70;;;2.30;99.90;;;;;;5069381;28;20432;-56
2024/01/15 09:42:00;;;;;;;2.00;0.70;;;2.30;99.90;;;;;;5071053;28;20470;-56
2024/01/15 09:44:28;;;;;;;1.20;0.60;;;2.30;99.90;;;;;;5073968;28;20954;-56
2024/01/15 09:46:56;;;;;;;2.20;0.70;;;2.40;99.90;;;;;;5073075;28;20420;-57
2024/01/15 09:49:23;;;;;;;1.77;0.70;;;2.40;99.90;;;;;;5072507;28;20484;-55
2024/01/15 09:51:52;;;;;;;1.27;0.60;;;2.40;99.90;;;;;;5071007;28;20435;-56
2024/01/15 09:54:19;;;;;;;3.35;0.60;;;2.50;99.90;;;;;;5072175;28;20542;-55
2024/01/15 09:56:47;;;;;;;2.07;0.60;;;2.60;99.90;;;;;;5069478;28;20702;-56
2024/01/15 09:59:17;;;;;;;2.13;0.60;;;2.60;99.90;;;;;;5070798;28;20970;-57
2024/01/15 10:01:45;;;;;;;2.80;0.60;;;2.60;99.90;;;;;;5070523;28;20849;-54
2024/01/15 10:04:12;;;;;;;2.15;0.77;;;2.60;99.90;;;;;;5070865;28;20508;-56
2024/01/15 10:06:40;;;;;;;1.23;0.60;;;2.70;99.90;;;;;;5070615;28;20582;-54
2024/01/15 10:09:09;;;;;;;1.20;0.50;;;2.70;99.90;;;;;;5071048;28;20435;-55
2024/01/15 10:11:36;;;;;;;1.40;0.60;;;2.60;99.90;;;;;;5071451;28;20435;-52
2024/01/15 10:14:05;;;;;;;2.00;0.70;;;2.60;99.90;;;;;;5076428;28;20442;-54
2024/01/15 10:16:32;;;;;;;1.50;0.60;;;2.70;99.90;;;;;;5059296;28;20767;-55
2024/01/15 10:18:59;;;;;;;1.60;0.60;;;2.90;99.90;;;;;;5062865;28;20435;-56
2024/01/15 10:21:27;;;;;;;1.10;0.60;;;2.90;99.90;;;;;;5070762;28;20439;-55
2024/01/15 10:23:55;;;;;;;1.70;0.60;;;2.90;99.90;;;;;;5072553;28;20530;-54
2024/01/15 10:26:27;;;;;;;2.65;0.70;;;3.00;94.10;;;;;;5071109;28;20442;-56
2024/01/15 10:28:54;;;;;;;1.70;0.60;;;2.90;99.90;;;;;;5069398;28;20437;-57
2024/01/15 10:31:21;;;;;;;1.45;0.60;;;2.90;97.60;;;;;;5061262;28;20858;-55
2024/01/15 10:33:49;;;;;;;1.20;0.70;;;2.70;95.10;;;;;;5072674;28;20427;-55
2024/01/15 10:36:17;;;;;;;2.20;0.70;;;2.60;99.90;;;;;;5071803;28;20759;-56
2024/01/15 10:38:44;;;;;;;1.50;0.60;;;2.60;99.90;;;;;;5070426;28;20431;-56
2024/01/15 10:41:11;;;;;;;1.30;0.60;;;2.60;99.90;;;;;;5065723;28;20984;-55
2024/01/15 10:43:41;;;;;;;1.20;0.60;;;2.80;99.90;;;;;;5065931;28;20461;-55
2024/01/15 10:46:08;;;;;;;1.50;0.60;;;2.80;99.90;;;;;;5069600;28;20431;-55
2024/01/15 10:48:35;;;;;;;1.80;0.60;;;2.70;99.90;;;;;;5067656;28;20461;-55
2024/01/15 10:51:10;;;;;;;2.60;0.60;;;2.70;99.90;;;;;;5070995;28;20435;-56
2024/01/15 10:53:39;;;;;;;1.23;0.60;;;2.70;99.90;;;;;;5066070;28;20888;-56
2024/01/15 10:56:08;;;;;;;2.00;0.60;;;2.70;99.90;;;;;;5068668;28;20525;-56
2024/01/15 10:58:35;;;;;;;2.10;0.70;;;2.70;99.90;;;;;;5071847;28;20908;-57
2024/01/15 11:01:05;;;;;;;2.45;0.70;;;2.90;99.90;;;;;;5071992;28;20551;-58
2024/01/15 11:03:32;;;;;;;1.20;0.60;;;2.90;99.90;;;;;;5070264;28;20518;-58
2024/01/15 11:06:01;;;;;;;2.47;0.60;;;2.80;99.90;;;;;;5070497;28;20845;-58
2024/01/15 11:08:28;;;;;;;1.90;0.70;;;3.00;99.90;;;;;;5071130;28;20857;-57
2024/01/15 11:10:57;;;;;;;1.65;0.50;;;3.00;99.90;;;;;;5070336;28;20884;-58
2024/01/15 11:13:41;;;;;;;1.80;0.65;;;3.00;99.90;;;;;;5067985;28;20463;-57
2024/01/15 11:16:11;;;;;;;1.40;0.70;;;3.10;99.90;;;;;;5070144;28;20809;-58
2024/01/15 11:18:42;;;;;;;1.10;0.60;;;3.00;99.90;;;;;;5070709;28;20758;-59
2024/01/15 11:21:21;;;;;;;1.60;0.70;;;2.90;99.90;;;;;;5071540;28;20566;-58
2024/01/15 11:23:50;;;;;;;1.00;0.60;;;2.70;1.00;;;;;;5068449;28;20508;-57
2024/01/15 11:26:35;;;;;;;1.70;0.60;;;2.80;98.00;;;;;;5069285;28;20423;-57
2024/01/15 11:29:05;;;;;;;2.50;0.80;;;2.80;99.90;;;;;;5068716;28;20431;-56
2024/01/15 11:32:07;;;;;;;2.50;0.77;;;2.90;80.70;;;;;;5068069;28;20435;-58
2024/01/15 11:35:01;;;;;;;1.40;0.65;;;2.80;38.60;;;;;;5068580;28;20415;-54
2024/01/15 11:37:30;;;;;;;1.30;0.60;;;2.80;1.00;;;;;;5051517;28;20444;-58
2024/01/15 11:40:03;;;;;;;1.60;0.80;;;2.70;99.90;;;;;;5069337;28;20442;-58
2024/01/15 11:42:31;;;;;;;2.30;0.70;;;2.70;99.90;;;;;;5065621;28;20427;-57
2024/01/15 11:44:58;;;;;;;1.40;0.70;;;2.70;99.90;;;;;;5072001;28;20419;-58
2024/01/15 11:48:09;;;;;;;2.80;0.80;;;2.60;99.90;;;;;;5071845;28;20454;-58
2024/01/15 11:50:39;;;;;;;2.40;0.70;;;2.60;1.00;;;;;;5057700;28;20443;-58
2024/01/15 11:53:17;;;;;;;3.08;1.10;;;2.60;48.90;;;;;;5071495;28;20419;-56
2024/01/15 11:55:45;;;;;;;3.17;1.00;;;2.60;99.90;;;;;;5070498;28;20897;-57
2024/01/15 11:58:12;;;;;;;2.10;0.90;;;2.50;99.90;;;;;;5070182;28;20461;-57
2024/01/15 12:00:46;;;;;;;2.40;0.80;;;2.60;1.00;;;;;;5070814;28;21071;-57
2024/01/15 12:03:14;;;;;;;2.67;0.73;;;2.50;1.00;;;;;;5066871;28;20441;-59
2024/01/15 12:05:42;;;;;;;2.00;0.80;;;2.50;92.10;;;;;;5072787;28;20439;-59
2024/01/15 12:08:11;;;;;;;1.73;0.70;;;2.60;99.90;;;;;;5076639;28;20697;-59
2024/01/15 12:10:40;;;;;;;2.63;0.80;;;2.70;99.90;;;;;;5073770;28;20836;-58
2024/01/15 12:13:11;;;;;;;1.35;0.70;;;2.80;99.90;;;;;;5055395;28;20818;-58
2024/01/15 12:15:41;;;;;;;2.00;0.70;;;2.70;1.00;;;;;;5066545;28;20768;-58
2024/01/15 12:18:09;;;;;;;1.90;0.70;;;2.70;68.30;;;;;;5073039;28;20461;-57
2024/01/15 12:20:38;;;;;;;1.70;0.70;;;2.70;1.00;;;;;;5072650;28;20478;-58
2024/01/15 12:23:06;;;;;;;1.30;0.60;;;2.60;99.90;;;;;;5073043;28;20434;-57
2024/01/15 12:25:35;;;;;;;2.92;0.73;;;2.60;1.00;;;;;;5071989;28;20431;-57
2024/01/15 12:28:02;;;;;;;3.65;0.90;;;2.50;92.10;;;;;;5071611;28;20845;-57
2024/01/15 12:30:32;;;;;;;4.15;0.80;;;2.50;99.90;;;;;;5072676;28;20573;-57
2024/01/15 12:32:59;;;;;;;2.05;0.80;;;2.40;1.00;;;;;;5072847;28;20439;-59
2024/01/15 12:35:27;;;;;;;2.40;1.00;;;2.20;1.00;;;;;;5069708;28;20667;-57
2024/01/15 12:37:56;;;;;;;4.50;0.85;;;2.10;1.00;;;;;;5073609;28;20595;-57
2024/01/15 12:40:24;;;;;;;2.10;0.80;;;2.20;1.00;;;;;;5074545;28;20459;-58
2024/01/15 12:42:51;;;;;;;1.52;0.70;;;2.00;1.00;;;;;;5074693;28;20675;-57
2024/01/15 12:45:19;;;;;;;3.13;0.70;;;2.00;1.00;;;;;;5074224;28;20743;-56
2024/01/15 12:47:46;;;;;;;2.22;0.70;;;1.90;1.00;;;;;;5073858;28;20907;-58
2024/01/15 12:50:14;;;;;;;3.80;0.80;;;1.80;5.70;;;;;;5072525;28;20484;-58
2024/01/15 12:52:41;;;;;;;1.77;0.80;;;1.80;23.90;;;;;;5071683;28;20431;-53
2024/01/15 12:55:11;;;;;;;1.80;0.70;;;1.90;20.00;;;;;;5072456;28;20434;-56
2024/01/15 12:57:38;;;;;;;2.80;0.80;;;1.80;28.30;;;;;;5071251;28;21071;-51
2024/01/15 13:00:11;;;;;;;2.25;0.70;;;1.80;37.70;;;;;;5072978;28;20434;-56
2024/01/15 13:02:39;;;;;;;2.40;0.80;;;1.90;48.90;;;;;;5073615;28;20840;-55
2024/01/15 13:05:08;;;;;;;1.40;0.60;;;1.70;33.10;;;;;;5074318;28;20451;-54